sensor_id;sensor_type;location;lat;lon;timestamp;temperature;humidity
18934;DHT22;9599;53.706;10.384;2023-03-17T00:01:54;6.20;99.90
18934;DHT22;9599;53.706;10.384;2023-03-17T00:04:23;6.10;99.90
18934;DHT22;9599;53.706;10.384;2023-03-17T00:06:52;6.10;99.90
18934;DHT22;9599;53.706;10.384;2023-03-17T00:09:22;6.10;99.90
18934;DHT22;9599;53.706;10.384;2023-03-17T00:11:49;6.10;99.90
18934;DHT22;9599;53.706;10.384;2023-03-17T00:14:18;6.10;99.90
18934;DHT22;9599;53.706;10.384;2023-03-17T00:16:48;6.10;99.90
18934;DHT22;9599;53.706;10.384;2023-03-17T00:19:17;6.10;99.90
18934;DHT22;9599;53.706;10.384;2023-03-17T00:21:46;6.10;99.90
18934;DHT22;9599;53.706;10.384;2023-03-17T00:24:14;6.00;99.90
18934;DHT22;9599;53.706;10.384;2023-03-17T00:26:44;6.00;99.90
18934;DHT22;9599;53.706;10.384;2023-03-17T00:29:12;6.10;99.90
18934;DHT22;9599;53.706;10.384;2023-03-17T00:31:43;6.10;99.90
18934;DHT22;9599;53.706;10.384;2023-03-17T00:34:15;6.10;99.90
18934;DHT22;9599;53.706;10.384;2023-03-17T00:36:47;6.10;99.90
18934;DHT22;9599;53.706;10.384;2023-03-17T00:39:16;6.10;99.90
18934;DHT22;9599;53.706;10.384;2023-03-17T00:41:46;6.10;99.90
18934;DHT22;9599;53.706;10.384;2023-03-17T00:44:14;6.10;99.90
18934;DHT22;9599;53.706;10.384;2023-03-17T00:46:43;6.10;99.90
18934;DHT22;9599;53.706;10.384;2023-03-17T00:49:14;6.10;99.90
18934;DHT22;9599;53.706;10.384;2023-03-17T00:51:46;6.00;99.90
18934;DHT22;9599;53.706;10.384;2023-03-17T00:54:15;6.00;99.90
18934;DHT22;9599;53.706;10.384;2023-03-17T00:56:46;6.00;99.90
18934;DHT22;9599;53.706;10.384;2023-03-17T00:59:19;6.00;99.90
18934;DHT22;9599;53.706;10.384;2023-03-17T01:01:48;5.90;99.90
18934;DHT22;9599;53.706;10.384;2023-03-17T01:04:16;5.90;99.90
18934;DHT22;9599;53.706;10.384;2023-03-17T01:06:46;6.00;99.90
18934;DHT22;9599;53.706;10.384;2023-03-17T01:09:15;6.00;99.90
18934;DHT22;9599;53.706;10.384;2023-03-17T01:11:45;6.00;99.90
18934;DHT22;9599;53.706;10.384;2023-03-17T01:14:14;6.00;99.90
18934;DHT22;9599;53.706;10.384;2023-03-17T01:16:42;6.00;99.90
18934;DHT22;9599;53.706;10.384;2023-03-17T01:19:12;6.00;99.90
18934;DHT22;9599;53.706;10.384;2023-03-17T01:21:40;6.00;99.90
18934;DHT22;9599;53.706;10.384;2023-03-17T01:24:09;6.00;99.90
18934;DHT22;9599;53.706;10.384;2023-03-17T01:26:38;6.00;99.90
18934;DHT22;9599;53.706;10.384;2023-03-17T01:29:08;5.90;99.90
18934;DHT22;9599;53.706;10.384;2023-03-17T01:31:37;5.90;99.90
18934;DHT22;9599;53.706;10.384;2023-03-17T01:34:05;5.90;99.90
18934;DHT22;9599;53.706;10.384;2023-03-17T01:36:33;5.90;99.90
18934;DHT22;9599;53.706;10.384;2023-03-17T01:39:03;5.90;99.90
18934;DHT22;9599;53.706;10.384;2023-03-17T01:41:35;5.80;99.90
18934;DHT22;9599;53.706;10.384;2023-03-17T01:44:08;5.80;99.90
18934;DHT22;9599;53.706;10.384;2023-03-17T01:46:41;5.80;99.90
18934;DHT22;9599;53.706;10.384;2023-03-17T01:49:22;5.70;99.90
18934;DHT22;9599;53.706;10.384;2023-03-17T01:52:00;5.70;99.90
18934;DHT22;9599;53.706;10.384;2023-03-17T01:54:33;5.70;99.90
18934;DHT22;9599;53.706;10.384;2023-03-17T01:57:08;5.60;99.90
18934;DHT22;9599;53.706;10.384;2023-03-17T01:59:42;5.60;99.90
18934;DHT22;9599;53.706;10.384;2023-03-17T02:02:17;5.60;99.90
18934;DHT22;9599;53.706;10.384;2023-03-17T02:04:47;5.50;99.90
18934;DHT22;9599;53.706;10.384;2023-03-17T02:07:16;5.50;99.90
18934;DHT22;9599;53.706;10.384;2023-03-17T02:09:44;5.50;99.90
18934;DHT22;9599;53.706;10.384;2023-03-17T02:12:13;5.40;99.90
18934;DHT22;9599;53.706;10.384;2023-03-17T02:14:42;5.40;99.90
18934;DHT22;9599;53.706;10.384;2023-03-17T02:17:12;5.40;99.90
18934;DHT22;9599;53.706;10.384;2023-03-17T02:19:41;5.40;99.90
18934;DHT22;9599;53.706;10.384;2023-03-17T02:22:10;5.40;99.90
18934;DHT22;9599;53.706;10.384;2023-03-17T02:24:41;5.30;99.90
18934;DHT22;9599;53.706;10.384;2023-03-17T02:27:13;5.30;99.90
18934;DHT22;9599;53.706;10.384;2023-03-17T02:29:44;5.30;99.90
18934;DHT22;9599;53.706;10.384;2023-03-17T02:32:14;5.30;99.90
18934;DHT22;9599;53.706;10.384;2023-03-17T02:34:44;5.30;99.90
18934;DHT22;9599;53.706;10.384;2023-03-17T02:37:15;5.30;99.90
18934;DHT22;9599;53.706;10.384;2023-03-17T02:39:44;5.30;99.90
18934;DHT22;9599;53.706;10.384;2023-03-17T02:42:12;5.30;99.90
18934;DHT22;9599;53.706;10.384;2023-03-17T02:44:40;5.30;99.90
18934;DHT22;9599;53.706;10.384;2023-03-17T02:47:09;5.30;99.90
18934;DHT22;9599;53.706;10.384;2023-03-17T02:49:38;5.30;99.90
18934;DHT22;9599;53.706;10.384;2023-03-17T02:52:06;5.30;99.90
18934;DHT22;9599;53.706;10.384;2023-03-17T02:54:36;5.20;99.90
18934;DHT22;9599;53.706;10.384;2023-03-17T02:57:05;5.20;99.90
18934;DHT22;9599;53.706;10.384;2023-03-17T02:59:34;5.20;99.90
18934;DHT22;9599;53.706;10.384;2023-03-17T03:02:02;5.20;99.90
18934;DHT22;9599;53.706;10.384;2023-03-17T03:04:30;5.20;99.90
18934;DHT22;9599;53.706;10.384;2023-03-17T03:06:58;5.20;99.90
18934;DHT22;9599;53.706;10.384;2023-03-17T03:09:26;5.20;99.90
18934;DHT22;9599;53.706;10.384;2023-03-17T03:11:56;5.30;99.90
18934;DHT22;9599;53.706;10.384;2023-03-17T03:14:24;5.30;99.90
18934;DHT22;9599;53.706;10.384;2023-03-17T03:16:52;5.30;99.90
18934;DHT22;9599;53.706;10.384;2023-03-17T03:19:21;5.30;99.90
18934;DHT22;9599;53.706;10.384;2023-03-17T03:21:50;5.30;99.90
18934;DHT22;9599;53.706;10.384;2023-03-17T03:24:18;5.30;99.90
18934;DHT22;9599;53.706;10.384;2023-03-17T03:26:46;5.30;99.90
18934;DHT22;9599;53.706;10.384;2023-03-17T03:29:15;5.30;99.90
18934;DHT22;9599;53.706;10.384;2023-03-17T03:31:44;5.40;99.90
18934;DHT22;9599;53.706;10.384;2023-03-17T03:34:14;5.30;99.90
18934;DHT22;9599;53.706;10.384;2023-03-17T03:36:43;5.40;99.90
18934;DHT22;9599;53.706;10.384;2023-03-17T03:39:10;5.30;99.90
18934;DHT22;9599;53.706;10.384;2023-03-17T03:41:41;5.40;99.90
18934;DHT22;9599;53.706;10.384;2023-03-17T03:44:09;5.40;99.90
18934;DHT22;9599;53.706;10.384;2023-03-17T03:46:38;5.30;99.90
18934;DHT22;9599;53.706;10.384;2023-03-17T03:49:06;5.40;99.90
18934;DHT22;9599;53.706;10.384;2023-03-17T03:51:34;5.40;99.90
18934;DHT22;9599;53.706;10.384;2023-03-17T03:54:02;5.40;99.90
18934;DHT22;9599;53.706;10.384;2023-03-17T03:56:30;5.40;99.90
18934;DHT22;9599;53.706;10.384;2023-03-17T03:58:58;5.40;99.90
18934;DHT22;9599;53.706;10.384;2023-03-17T04:01:26;5.30;99.90
18934;DHT22;9599;53.706;10.384;2023-03-17T04:03:55;5.40;99.90
18934;DHT22;9599;53.706;10.384;2023-03-17T04:06:23;5.40;99.90
18934;DHT22;9599;53.706;10.384;2023-03-17T04:08:51;5.40;99.90
18934;DHT22;9599;53.706;10.384;2023-03-17T04:11:21;5.40;99.90
18934;DHT22;9599;53.706;10.384;2023-03-17T04:13:49;5.40;99.90
18934;DHT22;9599;53.706;10.384;2023-03-17T04:16:17;5.50;99.90
18934;DHT22;9599;53.706;10.384;2023-03-17T04:18:45;5.50;99.90
18934;DHT22;9599;53.706;10.384;2023-03-17T04:21:15;5.50;99.90
18934;DHT22;9599;53.706;10.384;2023-03-17T04:23:44;5.50;99.90
18934;DHT22;9599;53.706;10.384;2023-03-17T04:26:12;5.50;99.90
18934;DHT22;9599;53.706;10.384;2023-03-17T04:28:40;5.40;99.90
18934;DHT22;9599;53.706;10.384;2023-03-17T04:31:10;5.40;99.90
18934;DHT22;9599;53.706;10.384;2023-03-17T04:33:38;5.40;99.90
18934;DHT22;9599;53.706;10.384;2023-03-17T04:36:08;5.30;99.90
18934;DHT22;9599;53.706;10.384;2023-03-17T04:38:42;5.30;99.90
18934;DHT22;9599;53.706;10.384;2023-03-17T04:41:10;5.30;99.90
18934;DHT22;9599;53.706;10.384;2023-03-17T04:43:38;5.30;99.90
18934;DHT22;9599;53.706;10.384;2023-03-17T04:46:07;5.30;99.90
18934;DHT22;9599;53.706;10.384;2023-03-17T04:48:35;5.30;99.90
18934;DHT22;9599;53.706;10.384;2023-03-17T04:51:03;5.30;99.90
18934;DHT22;9599;53.706;10.384;2023-03-17T04:53:31;5.30;99.90
18934;DHT22;9599;53.706;10.384;2023-03-17T04:56:01;5.20;99.90
18934;DHT22;9599;53.706;10.384;2023-03-17T04:58:29;5.20;99.90
18934;DHT22;9599;53.706;10.384;2023-03-17T05:00:57;5.20;99.90
18934;DHT22;9599;53.706;10.384;2023-03-17T05:03:25;5.20;99.90
18934;DHT22;9599;53.706;10.384;2023-03-17T05:05:54;5.20;99.90
18934;DHT22;9599;53.706;10.384;2023-03-17T05:08:23;5.30;99.90
18934;DHT22;9599;53.706;10.384;2023-03-17T05:10:51;5.30;99.90
18934;DHT22;9599;53.706;10.384;2023-03-17T05:13:20;5.20;99.90
18934;DHT22;9599;53.706;10.384;2023-03-17T05:15:51;5.30;99.90
18934;DHT22;9599;53.706;10.384;2023-03-17T05:18:20;5.30;99.90
18934;DHT22;9599;53.706;10.384;2023-03-17T05:20:48;5.30;99.90
18934;DHT22;9599;53.706;10.384;2023-03-17T05:23:16;5.30;99.90
18934;DHT22;9599;53.706;10.384;2023-03-17T05:25:44;5.30;99.90
18934;DHT22;9599;53.706;10.384;2023-03-17T05:28:13;5.30;99.90
18934;DHT22;9599;53.706;10.384;2023-03-17T05:30:43;5.30;99.90
18934;DHT22;9599;53.706;10.384;2023-03-17T05:33:11;5.30;99.90
18934;DHT22;9599;53.706;10.384;2023-03-17T05:35:40;5.30;99.90
18934;DHT22;9599;53.706;10.384;2023-03-17T05:38:10;5.30;99.90
18934;DHT22;9599;53.706;10.384;2023-03-17T05:40:38;5.30;99.90
18934;DHT22;9599;53.706;10.384;2023-03-17T05:43:06;5.30;99.90
18934;DHT22;9599;53.706;10.384;2023-03-17T05:45:35;5.30;99.90
18934;DHT22;9599;53.706;10.384;2023-03-17T05:48:04;5.40;99.90
18934;DHT22;9599;53.706;10.384;2023-03-17T05:50:34;5.30;99.90
18934;DHT22;9599;53.706;10.384;2023-03-17T05:53:02;5.30;99.90
18934;DHT22;9599;53.706;10.384;2023-03-17T05:55:30;5.30;99.90
18934;DHT22;9599;53.706;10.384;2023-03-17T05:57:58;5.30;99.90
18934;DHT22;9599;53.706;10.384;2023-03-17T06:00:30;5.30;99.90
18934;DHT22;9599;53.706;10.384;2023-03-17T06:02:58;5.30;99.90
18934;DHT22;9599;53.706;10.384;2023-03-17T06:05:29;5.40;99.90
18934;DHT22;9599;53.706;10.384;2023-03-17T06:07:57;5.30;99.90
18934;DHT22;9599;53.706;10.384;2023-03-17T06:10:25;5.40;99.90
18934;DHT22;9599;53.706;10.384;2023-03-17T06:12:53;5.40;99.90
18934;DHT22;9599;53.706;10.384;2023-03-17T06:15:22;5.50;99.90
18934;DHT22;9599;53.706;10.384;2023-03-17T06:17:50;5.50;99.90
18934;DHT22;9599;53.706;10.384;2023-03-17T06:20:18;5.50;99.90
18934;DHT22;9599;53.706;10.384;2023-03-17T06:22:48;5.50;99.90
18934;DHT22;9599;53.706;10.384;2023-03-17T06:25:30;5.60;99.90
18934;DHT22;9599;53.706;10.384;2023-03-17T06:27:59;5.60;99.90
18934;DHT22;9599;53.706;10.384;2023-03-17T06:30:28;5.60;99.90
18934;DHT22;9599;53.706;10.384;2023-03-17T06:32:56;5.70;99.90
18934;DHT22;9599;53.706;10.384;2023-03-17T06:35:24;5.70;99.90
18934;DHT22;9599;53.706;10.384;2023-03-17T06:37:53;5.70;99.90
18934;DHT22;9599;53.706;10.384;2023-03-17T06:40:21;5.70;99.90
18934;DHT22;9599;53.706;10.384;2023-03-17T06:42:49;5.70;99.90
18934;DHT22;9599;53.706;10.384;2023-03-17T06:45:18;5.70;99.90
18934;DHT22;9599;53.706;10.384;2023-03-17T06:47:46;5.70;99.90
18934;DHT22;9599;53.706;10.384;2023-03-17T06:50:14;5.80;99.90
18934;DHT22;9599;53.706;10.384;2023-03-17T06:52:42;5.80;99.90
18934;DHT22;9599;53.706;10.384;2023-03-17T06:55:13;5.80;99.90
18934;DHT22;9599;53.706;10.384;2023-03-17T06:57:42;5.80;99.90
18934;DHT22;9599;53.706;10.384;2023-03-17T07:00:11;5.80;99.90
18934;DHT22;9599;53.706;10.384;2023-03-17T07:02:40;5.90;99.90
18934;DHT22;9599;53.706;10.384;2023-03-17T07:05:09;5.90;99.90
18934;DHT22;9599;53.706;10.384;2023-03-17T07:07:38;5.80;99.90
18934;DHT22;9599;53.706;10.384;2023-03-17T07:10:07;5.90;99.90
18934;DHT22;9599;53.706;10.384;2023-03-17T07:12:37;5.90;99.90
18934;DHT22;9599;53.706;10.384;2023-03-17T07:15:06;5.90;99.90
18934;DHT22;9599;53.706;10.384;2023-03-17T07:17:34;5.90;99.90
18934;DHT22;9599;53.706;10.384;2023-03-17T07:20:03;5.90;99.90
18934;DHT22;9599;53.706;10.384;2023-03-17T07:22:32;5.90;99.90
18934;DHT22;9599;53.706;10.384;2023-03-17T07:25:00;5.90;99.90
18934;DHT22;9599;53.706;10.384;2023-03-17T07:27:28;6.00;99.90
18934;DHT22;9599;53.706;10.384;2023-03-17T07:29:58;6.00;99.90
18934;DHT22;9599;53.706;10.384;2023-03-17T07:32:28;6.00;99.90
18934;DHT22;9599;53.706;10.384;2023-03-17T07:34:56;6.10;99.90
18934;DHT22;9599;53.706;10.384;2023-03-17T07:37:24;6.10;99.90
18934;DHT22;9599;53.706;10.384;2023-03-17T07:39:52;6.10;99.90
18934;DHT22;9599;53.706;10.384;2023-03-17T07:42:20;6.10;99.90
18934;DHT22;9599;53.706;10.384;2023-03-17T07:44:47;6.20;99.90
18934;DHT22;9599;53.706;10.384;2023-03-17T07:47:17;6.50;99.90
18934;DHT22;9599;53.706;10.384;2023-03-17T07:49:45;6.70;99.90
18934;DHT22;9599;53.706;10.384;2023-03-17T07:52:13;6.90;99.90
18934;DHT22;9599;53.706;10.384;2023-03-17T07:54:41;7.20;99.90
18934;DHT22;9599;53.706;10.384;2023-03-17T07:57:10;7.40;99.90
18934;DHT22;9599;53.706;10.384;2023-03-17T07:59:39;7.50;99.90
18934;DHT22;9599;53.706;10.384;2023-03-17T08:02:13;7.80;99.90
18934;DHT22;9599;53.706;10.384;2023-03-17T08:04:43;8.00;99.90
18934;DHT22;9599;53.706;10.384;2023-03-17T08:07:11;8.40;99.90
18934;DHT22;9599;53.706;10.384;2023-03-17T08:09:40;8.60;99.90
18934;DHT22;9599;53.706;10.384;2023-03-17T08:12:09;8.80;99.90
18934;DHT22;9599;53.706;10.384;2023-03-17T08:14:37;8.80;99.90
18934;DHT22;9599;53.706;10.384;2023-03-17T08:17:05;8.90;99.90
18934;DHT22;9599;53.706;10.384;2023-03-17T08:19:33;8.80;99.90
18934;DHT22;9599;53.706;10.384;2023-03-17T08:22:03;9.00;99.90
18934;DHT22;9599;53.706;10.384;2023-03-17T08:24:31;9.30;99.90
18934;DHT22;9599;53.706;10.384;2023-03-17T08:27:00;9.50;99.90
18934;DHT22;9599;53.706;10.384;2023-03-17T08:29:29;9.70;99.90
18934;DHT22;9599;53.706;10.384;2023-03-17T08:31:57;9.70;99.90
18934;DHT22;9599;53.706;10.384;2023-03-17T08:34:25;9.80;99.90
18934;DHT22;9599;53.706;10.384;2023-03-17T08:36:53;10.00;99.90
18934;DHT22;9599;53.706;10.384;2023-03-17T08:39:22;10.10;99.90
18934;DHT22;9599;53.706;10.384;2023-03-17T08:41:51;10.30;99.90
18934;DHT22;9599;53.706;10.384;2023-03-17T08:44:19;10.30;99.90
18934;DHT22;9599;53.706;10.384;2023-03-17T08:46:48;10.30;99.90
18934;DHT22;9599;53.706;10.384;2023-03-17T08:49:17;10.30;99.90
18934;DHT22;9599;53.706;10.384;2023-03-17T08:51:45;10.10;99.90
18934;DHT22;9599;53.706;10.384;2023-03-17T08:54:13;10.20;99.90
18934;DHT22;9599;53.706;10.384;2023-03-17T08:56:42;10.40;99.90
18934;DHT22;9599;53.706;10.384;2023-03-17T08:59:11;10.70;99.90
18934;DHT22;9599;53.706;10.384;2023-03-17T09:01:39;10.90;99.90
18934;DHT22;9599;53.706;10.384;2023-03-17T09:04:07;11.30;99.90
18934;DHT22;9599;53.706;10.384;2023-03-17T09:06:36;11.60;99.90
18934;DHT22;9599;53.706;10.384;2023-03-17T09:09:14;11.80;99.90
18934;DHT22;9599;53.706;10.384;2023-03-17T09:11:44;11.90;99.90
18934;DHT22;9599;53.706;10.384;2023-03-17T09:14:12;12.10;99.90
18934;DHT22;9599;53.706;10.384;2023-03-17T09:16:40;12.20;99.90
18934;DHT22;9599;53.706;10.384;2023-03-17T09:19:08;12.20;99.90
18934;DHT22;9599;53.706;10.384;2023-03-17T09:21:36;12.30;99.90
18934;DHT22;9599;53.706;10.384;2023-03-17T09:24:05;12.40;99.90
18934;DHT22;9599;53.706;10.384;2023-03-17T09:26:33;12.50;99.90
18934;DHT22;9599;53.706;10.384;2023-03-17T09:29:02;12.60;99.90
18934;DHT22;9599;53.706;10.384;2023-03-17T09:31:30;12.70;99.90
18934;DHT22;9599;53.706;10.384;2023-03-17T09:33:59;12.80;99.90
18934;DHT22;9599;53.706;10.384;2023-03-17T09:36:27;13.00;99.90
18934;DHT22;9599;53.706;10.384;2023-03-17T09:38:54;13.20;99.90
18934;DHT22;9599;53.706;10.384;2023-03-17T09:41:36;13.40;99.90
18934;DHT22;9599;53.706;10.384;2023-03-17T09:44:16;13.50;99.90
18934;DHT22;9599;53.706;10.384;2023-03-17T09:46:58;13.70;99.90
18934;DHT22;9599;53.706;10.384;2023-03-17T09:49:37;13.80;99.90
18934;DHT22;9599;53.706;10.384;2023-03-17T09:52:11;13.90;99.90
18934;DHT22;9599;53.706;10.384;2023-03-17T09:54:40;14.00;99.90
18934;DHT22;9599;53.706;10.384;2023-03-17T09:57:13;14.20;99.90
18934;DHT22;9599;53.706;10.384;2023-03-17T09:59:47;14.40;99.90
18934;DHT22;9599;53.706;10.384;2023-03-17T10:02:20;14.50;99.90
18934;DHT22;9599;53.706;10.384;2023-03-17T10:04:49;14.50;99.90
18934;DHT22;9599;53.706;10.384;2023-03-17T10:07:21;14.40;99.90
18934;DHT22;9599;53.706;10.384;2023-03-17T10:09:57;14.30;99.90
18934;DHT22;9599;53.706;10.384;2023-03-17T10:12:36;14.40;99.90
18934;DHT22;9599;53.706;10.384;2023-03-17T10:15:15;14.50;99.90
18934;DHT22;9599;53.706;10.384;2023-03-17T10:17:45;14.80;99.90
18934;DHT22;9599;53.706;10.384;2023-03-17T10:20:15;15.10;99.90
18934;DHT22;9599;53.706;10.384;2023-03-17T10:22:46;15.30;99.90
18934;DHT22;9599;53.706;10.384;2023-03-17T10:25:17;15.40;99.90
18934;DHT22;9599;53.706;10.384;2023-03-17T10:27:49;15.50;99.90
18934;DHT22;9599;53.706;10.384;2023-03-17T10:30:21;15.40;99.90
18934;DHT22;9599;53.706;10.384;2023-03-17T10:32:51;15.20;99.90
18934;DHT22;9599;53.706;10.384;2023-03-17T10:35:22;15.30;99.90
18934;DHT22;9599;53.706;10.384;2023-03-17T10:37:50;15.20;99.90
18934;DHT22;9599;53.706;10.384;2023-03-17T10:40:38;15.20;99.90
18934;DHT22;9599;53.706;10.384;2023-03-17T10:43:17;15.10;99.90
18934;DHT22;9599;53.706;10.384;2023-03-17T10:45:56;15.10;99.90
18934;DHT22;9599;53.706;10.384;2023-03-17T10:48:25;14.90;99.90
18934;DHT22;9599;53.706;10.384;2023-03-17T10:50:56;14.60;99.90
18934;DHT22;9599;53.706;10.384;2023-03-17T10:53:26;14.50;99.90
18934;DHT22;9599;53.706;10.384;2023-03-17T10:55:59;14.40;99.90
18934;DHT22;9599;53.706;10.384;2023-03-17T10:58:39;14.50;99.90
18934;DHT22;9599;53.706;10.384;2023-03-17T11:01:21;14.60;99.90
18934;DHT22;9599;53.706;10.384;2023-03-17T11:03:52;14.80;99.90
18934;DHT22;9599;53.706;10.384;2023-03-17T11:06:31;15.10;99.90
18934;DHT22;9599;53.706;10.384;2023-03-17T11:09:06;15.40;99.90
18934;DHT22;9599;53.706;10.384;2023-03-17T11:11:42;15.70;99.90
18934;DHT22;9599;53.706;10.384;2023-03-17T11:14:11;15.80;99.90
18934;DHT22;9599;53.706;10.384;2023-03-17T11:16:50;15.90;99.90
18934;DHT22;9599;53.706;10.384;2023-03-17T11:19:25;16.00;99.90
18934;DHT22;9599;53.706;10.384;2023-03-17T11:22:01;15.80;99.90
18934;DHT22;9599;53.706;10.384;2023-03-17T11:24:33;15.60;99.90
18934;DHT22;9599;53.706;10.384;2023-03-17T11:27:11;15.50;99.90
18934;DHT22;9599;53.706;10.384;2023-03-17T11:29:50;15.40;99.90
18934;DHT22;9599;53.706;10.384;2023-03-17T11:32:25;15.20;99.90
18934;DHT22;9599;53.706;10.384;2023-03-17T11:35:06;15.20;99.90
18934;DHT22;9599;53.706;10.384;2023-03-17T11:37:58;15.20;99.90
18934;DHT22;9599;53.706;10.384;2023-03-17T11:40:31;15.10;99.90
18934;DHT22;9599;53.706;10.384;2023-03-17T11:43:13;15.20;99.90
18934;DHT22;9599;53.706;10.384;2023-03-17T11:45:50;15.30;99.90
18934;DHT22;9599;53.706;10.384;2023-03-17T11:48:32;15.40;99.90
18934;DHT22;9599;53.706;10.384;2023-03-17T11:51:07;15.30;99.90
18934;DHT22;9599;53.706;10.384;2023-03-17T11:53:53;15.10;99.90
18934;DHT22;9599;53.706;10.384;2023-03-17T11:56:28;15.00;99.90
18934;DHT22;9599;53.706;10.384;2023-03-17T11:59:00;15.00;99.90
18934;DHT22;9599;53.706;10.384;2023-03-17T12:01:37;15.10;99.90
18934;DHT22;9599;53.706;10.384;2023-03-17T12:04:16;15.30;99.90
18934;DHT22;9599;53.706;10.384;2023-03-17T12:06:50;15.60;99.90
18934;DHT22;9599;53.706;10.384;2023-03-17T12:09:26;15.70;99.90
18934;DHT22;9599;53.706;10.384;2023-03-17T12:11:56;15.80;99.90
18934;DHT22;9599;53.706;10.384;2023-03-17T12:14:27;15.90;99.90
18934;DHT22;9599;53.706;10.384;2023-03-17T12:17:02;16.10;99.90
18934;DHT22;9599;53.706;10.384;2023-03-17T12:19:38;16.20;99.90
18934;DHT22;9599;53.706;10.384;2023-03-17T12:22:18;16.10;99.90
18934;DHT22;9599;53.706;10.384;2023-03-17T12:24:55;16.10;99.90
18934;DHT22;9599;53.706;10.384;2023-03-17T12:27:30;16.10;99.90
18934;DHT22;9599;53.706;10.384;2023-03-17T12:30:02;16.00;99.90
18934;DHT22;9599;53.706;10.384;2023-03-17T12:32:38;15.90;99.90
18934;DHT22;9599;53.706;10.384;2023-03-17T12:35:22;15.90;99.90
18934;DHT22;9599;53.706;10.384;2023-03-17T12:37:52;16.00;99.90
18934;DHT22;9599;53.706;10.384;2023-03-17T12:40:22;16.00;99.90
18934;DHT22;9599;53.706;10.384;2023-03-17T12:42:55;16.00;99.90
18934;DHT22;9599;53.706;10.384;2023-03-17T12:45:48;16.00;99.90
18934;DHT22;9599;53.706;10.384;2023-03-17T12:48:31;16.00;99.90
18934;DHT22;9599;53.706;10.384;2023-03-17T12:51:27;15.80;99.90
18934;DHT22;9599;53.706;10.384;2023-03-17T12:53:57;15.80;99.90
18934;DHT22;9599;53.706;10.384;2023-03-17T12:56:27;15.70;99.90
18934;DHT22;9599;53.706;10.384;2023-03-17T12:59:00;15.70;99.90
18934;DHT22;9599;53.706;10.384;2023-03-17T13:01:31;15.70;99.90
18934;DHT22;9599;53.706;10.384;2023-03-17T13:04:03;15.70;99.90
18934;DHT22;9599;53.706;10.384;2023-03-17T13:06:38;15.80;99.90
18934;DHT22;9599;53.706;10.384;2023-03-17T13:09:42;15.70;99.90
18934;DHT22;9599;53.706;10.384;2023-03-17T13:15:26;16.00;99.90
18934;DHT22;9599;53.706;10.384;2023-03-17T13:18:25;16.00;99.90
18934;DHT22;9599;53.706;10.384;2023-03-17T13:21:10;16.10;99.90
18934;DHT22;9599;53.706;10.384;2023-03-17T13:23:42;16.20;99.90
18934;DHT22;9599;53.706;10.384;2023-03-17T13:26:16;16.10;99.90
18934;DHT22;9599;53.706;10.384;2023-03-17T13:28:46;16.10;99.90
18934;DHT22;9599;53.706;10.384;2023-03-17T13:31:32;16.10;99.90
18934;DHT22;9599;53.706;10.384;2023-03-17T13:34:10;16.10;99.90
18934;DHT22;9599;53.706;10.384;2023-03-17T13:36:47;16.20;99.90
18934;DHT22;9599;53.706;10.384;2023-03-17T13:40:05;16.40;99.90
18934;DHT22;9599;53.706;10.384;2023-03-17T13:42:57;16.60;99.90
18934;DHT22;9599;53.706;10.384;2023-03-17T13:45:36;16.70;99.90
18934;DHT22;9599;53.706;10.384;2023-03-17T13:48:24;16.70;99.90
18934;DHT22;9599;53.706;10.384;2023-03-17T13:51:01;16.60;99.90
18934;DHT22;9599;53.706;10.384;2023-03-17T13:53:31;16.60;99.90
18934;DHT22;9599;53.706;10.384;2023-03-17T13:56:22;16.50;99.90
18934;DHT22;9599;53.706;10.384;2023-03-17T13:58:55;16.60;99.90
18934;DHT22;9599;53.706;10.384;2023-03-17T14:01:25;16.70;99.90
18934;DHT22;9599;53.706;10.384;2023-03-17T14:03:55;16.80;99.90
18934;DHT22;9599;53.706;10.384;2023-03-17T14:06:26;16.80;99.90
18934;DHT22;9599;53.706;10.384;2023-03-17T14:09:00;16.80;99.90
18934;DHT22;9599;53.706;10.384;2023-03-17T14:11:34;16.90;99.90
18934;DHT22;9599;53.706;10.384;2023-03-17T14:14:22;16.90;99.90
18934;DHT22;9599;53.706;10.384;2023-03-17T14:17:03;16.90;99.90
18934;DHT22;9599;53.706;10.384;2023-03-17T14:19:31;16.90;99.90
18934;DHT22;9599;53.706;10.384;2023-03-17T14:22:16;16.80;99.90
18934;DHT22;9599;53.706;10.384;2023-03-17T14:24:44;16.80;99.90
18934;DHT22;9599;53.706;10.384;2023-03-17T14:27:14;16.80;99.90
18934;DHT22;9599;53.706;10.384;2023-03-17T14:29:42;16.80;99.90
18934;DHT22;9599;53.706;10.384;2023-03-17T14:32:13;16.80;99.90
18934;DHT22;9599;53.706;10.384;2023-03-17T14:34:42;16.70;99.90
18934;DHT22;9599;53.706;10.384;2023-03-17T14:37:11;16.50;99.90
18934;DHT22;9599;53.706;10.384;2023-03-17T14:39:43;16.50;99.90
18934;DHT22;9599;53.706;10.384;2023-03-17T14:42:12;16.40;99.90
18934;DHT22;9599;53.706;10.384;2023-03-17T14:44:42;16.40;99.90
18934;DHT22;9599;53.706;10.384;2023-03-17T14:47:17;16.40;99.90
18934;DHT22;9599;53.706;10.384;2023-03-17T14:49:46;16.50;99.90
18934;DHT22;9599;53.706;10.384;2023-03-17T14:52:17;16.40;99.90
18934;DHT22;9599;53.706;10.384;2023-03-17T14:54:49;16.40;99.90
18934;DHT22;9599;53.706;10.384;2023-03-17T14:57:21;16.50;99.90
18934;DHT22;9599;53.706;10.384;2023-03-17T14:59:59;16.50;99.90
18934;DHT22;9599;53.706;10.384;2023-03-17T15:02:32;16.60;99.90
18934;DHT22;9599;53.706;10.384;2023-03-17T15:05:05;16.60;99.90
18934;DHT22;9599;53.706;10.384;2023-03-17T15:07:39;16.70;99.90
18934;DHT22;9599;53.706;10.384;2023-03-17T15:10:13;16.70;99.90
18934;DHT22;9599;53.706;10.384;2023-03-17T15:12:42;16.70;99.90
18934;DHT22;9599;53.706;10.384;2023-03-17T15:15:20;16.70;99.90
18934;DHT22;9599;53.706;10.384;2023-03-17T15:17:50;16.70;99.90
18934;DHT22;9599;53.706;10.384;2023-03-17T15:20:19;16.70;99.90
18934;DHT22;9599;53.706;10.384;2023-03-17T15:22:50;16.70;99.90
18934;DHT22;9599;53.706;10.384;2023-03-17T15:25:24;16.70;99.90
18934;DHT22;9599;53.706;10.384;2023-03-17T15:27:55;16.70;99.90
18934;DHT22;9599;53.706;10.384;2023-03-17T15:30:24;16.60;99.90
18934;DHT22;9599;53.706;10.384;2023-03-17T15:32:59;16.40;99.90
18934;DHT22;9599;53.706;10.384;2023-03-17T15:35:27;16.40;99.90
18934;DHT22;9599;53.706;10.384;2023-03-17T15:37:56;16.30;99.90
18934;DHT22;9599;53.706;10.384;2023-03-17T15:40:24;16.20;99.90
18934;DHT22;9599;53.706;10.384;2023-03-17T15:42:52;16.20;99.90
18934;DHT22;9599;53.706;10.384;2023-03-17T15:45:19;16.10;99.90
18934;DHT22;9599;53.706;10.384;2023-03-17T15:47:49;16.10;99.90
18934;DHT22;9599;53.706;10.384;2023-03-17T15:50:21;16.00;99.90
18934;DHT22;9599;53.706;10.384;2023-03-17T15:52:50;15.90;99.90
18934;DHT22;9599;53.706;10.384;2023-03-17T15:55:22;15.90;99.90
18934;DHT22;9599;53.706;10.384;2023-03-17T15:57:50;15.90;99.90
18934;DHT22;9599;53.706;10.384;2023-03-17T16:00:23;15.80;99.90
18934;DHT22;9599;53.706;10.384;2023-03-17T16:02:55;15.80;99.90
18934;DHT22;9599;53.706;10.384;2023-03-17T16:05:26;15.80;99.90
18934;DHT22;9599;53.706;10.384;2023-03-17T16:07:54;15.70;99.90
18934;DHT22;9599;53.706;10.384;2023-03-17T16:10:24;15.70;99.90